McCarthy, AK

8:43 PM AKDT on June 01, 2015 (GMT -0800)
RAWS | | Change Station
CLOSE
Current Station
Personal Weather Station
Location: Chitina, AK
Elevation: 1579 ft
Nearby Weather Stations

Elev 1579 ft 61.35 °N, 142.71 °W | Updated 47 minutes ago

Overcast
Overcast
56 °F
Feels Like 56 °F
N
0
Wind Variable Wind from North
Gusts 7.0 mph

Today
High -- | Low -- °F
--% Chance of Precip.
Yesterday
High -- | Low -- °F
Precip. -- in
4:05 AM 10:54 PM
Full, 100% visible
Pressure 29.74 in
Visibility 10.0 miles
Clouds Few 5500 ft
Mostly Cloudy 10000 ft
Overcast 12000 ft
Dew Point 53 °F
Humidity 90%
Rainfall in
Snow Depth Not available.
UV 0 out of 12
Pollen Not available.
Air Quality Not available.
Flu Activity Sporadic
METAR PAGK 020353Z AUTO 02008KT 10SM FEW055 BKN100 OVC120 13/06 A2973 RMK AO2 SLP070 T01280056 TSNO

More Conditions Fewer Conditions

Pressure 29.74 in
Visibility 10.0 miles
Clouds Few 5500 ft
Mostly Cloudy 10000 ft
Overcast 12000 ft
Dew Point 53 °F
Humidity 90%
Rainfall in
Snow Depth Not available.
UV 0 out of 12
Pollen Not available.
Air Quality Not available.
Flu Activity Sporadic
METAR PAGK 020353Z AUTO 02008KT 10SM FEW055 BKN100 OVC120 13/06 A2973 RMK AO2 SLP070 T01280056 TSNO

More Conditions Fewer Conditions

10-Day Weather Forecast

Almanac

Astronomy

Jun. 01, 2015 Rise Set
Actual Time
Civil Twilight
Nautical Twilight
Astronomical Twilight
Moon
Length of Visible Light
Length of Day
Tomorrow will be .
, % of the Moon is Illuminated

Today's Extremes

State Highs State Lows

Community

WunderPhotos

Upload Photos

1,825,913 photos uploaded!

WunderBlogs® & News

Nearby

Air Quality

  Air Quality AQ Index Pollutant
Not available.

Snow Depth

Station Depth Elevation

Earthquake Activity

City Distance Mag. Time & Date
Minimum magnitude displayed is 2.5.

Coastal Water Temperatures

Place Temperature

Stations

Nearby Weather Stations

Station Location Temp. Windchill Dew Point Humidity Wind Precip. Elev Updated Type